createdAt,value
2023-04-04T00:04:18.502Z,2.13
2023-04-04T00:06:47.886Z,2.03
2023-04-04T00:09:19.287Z,2.60
2023-04-04T00:11:47.283Z,2.60
2023-04-04T00:14:18.064Z,2.50
2023-04-04T00:16:45.851Z,2.75
2023-04-04T00:19:18.166Z,2.60
2023-04-04T00:21:47.060Z,2.95
2023-04-04T00:24:14.667Z,3.08
2023-04-04T00:26:46.876Z,2.63
2023-04-04T00:29:14.498Z,2.60
2023-04-04T00:31:42.348Z,2.90
2023-04-04T00:34:10.205Z,2.80
2023-04-04T00:36:38.463Z,2.55
2023-04-04T00:39:07.583Z,2.05
2023-04-04T00:41:35.995Z,3.20
2023-04-04T00:44:03.744Z,2.38
2023-04-04T00:46:31.204Z,2.78
2023-04-04T00:48:59.912Z,2.50
2023-04-04T00:51:28.440Z,2.85
2023-04-04T00:53:58.362Z,2.72
2023-04-04T00:56:26.162Z,2.67
2023-04-04T00:58:54.692Z,2.60
2023-04-04T01:01:24.972Z,2.72
2023-04-04T01:03:53.242Z,2.75
2023-04-04T01:06:21.438Z,2.60
2023-04-04T01:08:49.403Z,2.85
2023-04-04T01:11:17.932Z,2.45
2023-04-04T01:13:47.740Z,2.88
2023-04-04T01:16:18.527Z,2.80
2023-04-04T01:18:47.065Z,3.05
2023-04-04T01:21:18.520Z,2.70
2023-04-04T01:23:46.328Z,2.63
2023-04-04T01:26:15.171Z,2.38
2023-04-04T01:28:46.214Z,2.72
2023-04-04T01:31:16.175Z,2.55
2023-04-04T01:33:47.299Z,2.53
2023-04-04T01:36:15.783Z,3.10
2023-04-04T01:38:46.039Z,2.78
2023-04-04T01:41:15.162Z,2.45
2023-04-04T01:43:51.595Z,2.88
2023-04-04T01:46:20.364Z,2.72
2023-04-04T01:51:29.294Z,3.45
2023-04-04T01:53:59.554Z,3.42
2023-04-04T01:56:28.859Z,3.30
2023-04-04T01:59:02.447Z,3.03
2023-04-04T02:01:33.862Z,3.60
2023-04-04T02:04:12.680Z,2.70
2023-04-04T02:06:40.806Z,3.15
2023-04-04T02:09:12.790Z,3.08
2023-04-04T02:11:42.820Z,3.00
2023-04-04T02:14:10.574Z,3.60
2023-04-04T02:16:38.640Z,3.50
2023-04-04T02:19:06.238Z,3.92
2023-04-04T02:21:50.039Z,4.47
2023-04-04T02:26:47.503Z,4.07
2023-04-04T02:29:15.175Z,4.28
2023-04-04T02:31:44.229Z,3.92
2023-04-04T02:34:11.798Z,4.05
2023-04-04T02:36:42.466Z,3.83
2023-04-04T02:39:10.712Z,3.90
2023-04-04T02:41:41.724Z,3.40
2023-04-04T02:44:10.317Z,4.03
2023-04-04T02:46:39.763Z,4.20
2023-04-04T02:51:40.447Z,3.88
2023-04-04T02:54:08.671Z,2.90
2023-04-04T02:56:41.759Z,3.70
2023-04-04T02:59:09.722Z,3.42
2023-04-04T03:01:37.557Z,3.65
2023-04-04T03:04:05.895Z,3.97
2023-04-04T03:09:07.183Z,3.45
2023-04-04T03:11:36.352Z,3.75
2023-04-04T03:14:04.045Z,3.53
2023-04-04T03:16:39.132Z,3.58
2023-04-04T03:19:07.659Z,3.43
2023-04-04T03:21:35.509Z,3.90
2023-04-04T03:24:03.736Z,3.63
2023-04-04T03:26:31.258Z,3.78
2023-04-04T03:28:59.722Z,3.55
2023-04-04T03:31:27.724Z,4.00
2023-04-04T03:33:56.076Z,4.13
2023-04-04T03:36:24.728Z,3.80
2023-04-04T03:38:54.758Z,3.90
2023-04-04T03:41:23.529Z,3.60
2023-04-04T03:43:51.434Z,3.72
2023-04-04T03:46:19.213Z,3.63
2023-04-04T03:48:47.616Z,3.70
2023-04-04T03:51:15.636Z,3.58
2023-04-04T03:53:45.544Z,3.13
2023-04-04T03:56:13.296Z,3.88
2023-04-04T03:58:41.638Z,4.20
2023-04-04T04:01:13.202Z,3.92
2023-04-04T04:03:41.256Z,3.40
2023-04-04T04:06:09.798Z,3.90
2023-04-04T04:08:37.986Z,3.92
2023-04-04T04:11:09.924Z,3.65
2023-04-04T04:13:39.046Z,3.83
2023-04-04T04:16:07.767Z,3.75
2023-04-04T04:18:36.902Z,3.72
2023-04-04T04:21:11.492Z,4.03
2023-04-04T04:23:42.796Z,3.85
2023-04-04T04:26:11.281Z,3.80
2023-04-04T04:28:39.019Z,4.28
2023-04-04T04:31:14.215Z,3.95
2023-04-04T04:33:46.164Z,3.70
2023-04-04T04:36:14.033Z,4.05
2023-04-04T04:39:00.859Z,3.78
2023-04-04T04:41:33.938Z,3.58
2023-04-04T04:44:02.647Z,3.58
2023-04-04T04:46:30.264Z,3.90
2023-04-04T04:48:59.134Z,4.30
2023-04-04T04:51:30.829Z,4.40
2023-04-04T04:53:59.694Z,4.03
2023-04-04T04:56:29.262Z,4.15
2023-04-04T04:59:07.491Z,3.70
2023-04-04T05:01:37.149Z,4.07
2023-04-04T05:04:05.038Z,4.20
2023-04-04T05:06:41.037Z,4.10
2023-04-04T05:09:10.856Z,4.28
2023-04-04T05:11:39.820Z,4.05
2023-04-04T05:14:13.092Z,4.22
2023-04-04T05:16:49.042Z,4.72
2023-04-04T05:19:18.142Z,4.10
2023-04-04T05:21:51.230Z,4.15
2023-04-04T05:24:29.587Z,4.57
2023-04-04T05:27:02.459Z,4.97
2023-04-04T05:29:36.381Z,5.20
2023-04-04T05:32:05.485Z,5.53
2023-04-04T05:34:36.710Z,5.03
2023-04-04T05:37:08.288Z,4.82
2023-04-04T05:39:37.858Z,5.07
2023-04-04T05:42:09.107Z,5.55
2023-04-04T05:44:41.681Z,6.00
2023-04-04T05:47:11.597Z,6.15
2023-04-04T05:49:43.817Z,5.65
2023-04-04T05:52:12.536Z,5.30
2023-04-04T05:54:41.470Z,6.10
2023-04-04T05:57:16.394Z,6.32
2023-04-04T05:59:53.711Z,6.00
2023-04-04T06:02:23.454Z,6.50
2023-04-04T06:04:55.757Z,5.93
2023-04-04T06:07:33.382Z,6.20
2023-04-04T06:10:02.227Z,6.45
2023-04-04T06:12:31.346Z,6.65
2023-04-04T06:14:59.322Z,6.68
2023-04-04T06:17:27.739Z,5.38
2023-04-04T06:19:56.080Z,5.90
2023-04-04T06:22:25.080Z,6.40
2023-04-04T06:24:56.748Z,6.03
2023-04-04T06:27:27.310Z,6.10
2023-04-04T06:29:55.573Z,6.22
2023-04-04T06:32:25.706Z,6.65
2023-04-04T06:34:56.877Z,7.15
2023-04-04T06:37:40.772Z,6.03
2023-04-04T06:40:16.222Z,6.28
2023-04-04T06:42:49.474Z,6.50
2023-04-04T06:45:18.240Z,6.20
2023-04-04T06:47:47.170Z,5.82
2023-04-04T06:50:15.455Z,6.57
2023-04-04T06:52:45.052Z,5.97
2023-04-04T06:55:13.295Z,5.35
2023-04-04T06:57:41.371Z,5.47
2023-04-04T07:00:10.794Z,5.38
2023-04-04T07:02:39.112Z,5.93
2023-04-04T07:05:07.359Z,4.80
2023-04-04T07:07:35.014Z,5.10
2023-04-04T07:10:03.557Z,5.38
2023-04-04T07:12:33.686Z,5.13
2023-04-04T07:15:02.246Z,5.10
2023-04-04T07:17:30.014Z,4.70
2023-04-04T07:19:57.733Z,5.10
2023-04-04T07:22:25.832Z,4.50
2023-04-04T07:24:54.763Z,4.50
2023-04-04T07:27:23.416Z,4.80
2023-04-04T07:29:53.839Z,4.35
2023-04-04T07:34:53.155Z,4.03
2023-04-04T07:37:22.019Z,3.95
2023-04-04T07:39:53.129Z,4.80
2023-04-04T07:42:24.988Z,3.60
2023-04-04T07:44:55.708Z,4.45
2023-04-04T07:47:24.544Z,3.47
2023-04-04T07:49:54.131Z,3.72
2023-04-04T07:52:21.982Z,3.33
2023-04-04T07:54:53.429Z,3.42
2023-04-04T07:59:49.221Z,3.15
2023-04-04T08:02:17.209Z,3.72
2023-04-04T08:04:45.243Z,2.63
2023-04-04T08:07:12.920Z,2.90
2023-04-04T08:09:40.616Z,2.88
2023-04-04T08:12:08.144Z,2.53
2023-04-04T08:14:35.736Z,3.28
2023-04-04T08:17:03.364Z,3.20
2023-04-04T08:19:31.073Z,2.67
2023-04-04T08:21:59.353Z,3.00
2023-04-04T08:24:28.260Z,1.98
2023-04-04T08:27:04.498Z,2.78
2023-04-04T08:29:34.547Z,2.70
2023-04-04T08:32:03.932Z,2.53
2023-04-04T08:34:32.145Z,1.95
2023-04-04T08:37:00.239Z,1.80
2023-04-04T08:39:28.095Z,2.42
2023-04-04T08:41:58.841Z,1.75
2023-04-04T08:44:27.964Z,2.10
2023-04-04T08:46:56.782Z,2.67
2023-04-04T08:49:28.373Z,1.83
2023-04-04T08:51:57.848Z,1.80
2023-04-04T08:54:30.794Z,2.20
2023-04-04T08:56:58.915Z,1.77
2023-04-04T08:59:27.930Z,2.00
2023-04-04T09:02:12.030Z,2.17
2023-04-04T09:04:41.940Z,1.88
2023-04-04T09:07:12.118Z,2.20
2023-04-04T09:09:41.139Z,2.05
2023-04-04T09:12:09.344Z,1.83
2023-04-04T09:14:40.521Z,2.33
2023-04-04T09:17:10.939Z,2.28
2023-04-04T09:22:09.927Z,2.50
2023-04-04T09:24:39.500Z,1.92
2023-04-04T09:27:09.884Z,2.20
2023-04-04T09:29:41.094Z,2.22
2023-04-04T09:32:15.090Z,2.90
2023-04-04T09:34:46.397Z,2.30
2023-04-04T09:37:15.789Z,2.00
2023-04-04T09:39:44.434Z,2.20
2023-04-04T09:42:12.652Z,2.22
2023-04-04T09:44:40.462Z,2.28
2023-04-04T09:47:33.588Z,2.10
2023-04-04T09:50:01.803Z,1.92
2023-04-04T09:52:42.003Z,2.42
2023-04-04T09:55:09.832Z,2.40
2023-04-04T09:57:38.060Z,2.40
2023-04-04T10:00:08.989Z,2.65
2023-04-04T10:02:39.030Z,2.47
2023-04-04T10:05:07.730Z,2.28
2023-04-04T10:07:38.905Z,2.20
2023-04-04T10:10:08.242Z,2.28
2023-04-04T10:12:37.681Z,2.00
2023-04-04T10:15:05.707Z,2.50
2023-04-04T10:17:41.098Z,2.60
2023-04-04T10:20:09.651Z,2.40
2023-04-04T10:22:38.106Z,3.25
2023-04-04T10:25:06.237Z,3.40
2023-04-04T10:27:34.417Z,2.55
2023-04-04T10:30:02.233Z,2.30
2023-04-04T10:32:36.159Z,2.45
2023-04-04T10:35:06.480Z,2.60
2023-04-04T10:37:39.310Z,2.65
2023-04-04T10:40:11.851Z,2.50
2023-04-04T10:42:41.388Z,2.75
2023-04-04T10:45:20.568Z,2.75
2023-04-04T10:47:50.007Z,2.60
2023-04-04T10:50:17.963Z,2.92
2023-04-04T10:52:48.063Z,2.85
2023-04-04T10:55:16.728Z,2.42
2023-04-04T10:57:47.362Z,2.42
2023-04-04T11:00:18.001Z,2.78
2023-04-04T11:03:03.291Z,2.45
2023-04-04T11:05:37.804Z,2.50
2023-04-04T11:08:08.784Z,2.45
2023-04-04T11:10:48.545Z,2.30
2023-04-04T11:13:16.589Z,2.40
2023-04-04T11:16:05.641Z,2.83
2023-04-04T11:18:34.291Z,3.10
2023-04-04T11:21:05.729Z,2.95
2023-04-04T11:24:00.134Z,2.97
2023-04-04T11:26:30.488Z,2.53
2023-04-04T11:28:59.098Z,2.58
2023-04-04T11:31:28.505Z,2.83
2023-04-04T11:34:09.482Z,2.80
2023-04-04T11:36:37.296Z,2.70
2023-04-04T11:39:06.601Z,2.45
2023-04-04T11:42:12.737Z,2.25
2023-04-04T11:45:03.001Z,2.22
2023-04-04T11:47:31.824Z,2.47
2023-04-04T11:50:01.245Z,2.53
2023-04-04T11:52:35.315Z,2.55
2023-04-04T11:55:03.042Z,2.85
2023-04-04T11:57:30.717Z,2.40
2023-04-04T12:00:10.274Z,2.83
2023-04-04T12:02:39.840Z,2.13
2023-04-04T12:05:10.655Z,2.53
2023-04-04T12:07:38.303Z,2.65
2023-04-04T12:10:06.222Z,2.75
2023-04-04T12:12:38.137Z,2.28
2023-04-04T12:15:16.974Z,2.83
2023-04-04T12:17:48.888Z,2.57
2023-04-04T12:20:17.950Z,3.20
2023-04-04T12:22:50.015Z,3.08
2023-04-04T12:25:18.450Z,2.42
2023-04-04T12:27:46.865Z,2.97
2023-04-04T12:30:16.249Z,2.90
2023-04-04T12:32:45.458Z,3.00
2023-04-04T12:35:13.488Z,2.80
2023-04-04T12:37:55.631Z,2.67
2023-04-04T12:40:24.612Z,2.78
2023-04-04T12:42:56.154Z,2.67
2023-04-04T12:45:28.105Z,2.55
2023-04-04T12:47:57.239Z,2.88
2023-04-04T12:50:30.508Z,2.88
2023-04-04T12:53:23.972Z,2.97
2023-04-04T12:55:50.237Z,2.42
2023-04-04T12:58:23.463Z,2.90
2023-04-04T13:00:56.696Z,3.30
2023-04-04T13:03:35.022Z,2.90
2023-04-04T13:06:05.092Z,2.75
2023-04-04T13:08:33.874Z,3.28
2023-04-04T13:11:07.493Z,2.72
2023-04-04T13:13:38.962Z,3.13
2023-04-04T13:16:10.528Z,3.10
2023-04-04T13:18:39.480Z,2.65
2023-04-04T13:21:08.062Z,2.88
2023-04-04T13:23:37.785Z,3.13
2023-04-04T13:26:05.857Z,3.50
2023-04-04T13:28:33.903Z,3.00
2023-04-04T13:31:05.791Z,3.00
2023-04-04T13:33:35.839Z,3.13
2023-04-04T13:36:03.776Z,3.42
2023-04-04T13:38:31.948Z,3.65
2023-04-04T13:40:59.831Z,2.60
2023-04-04T13:43:28.019Z,2.60
2023-04-04T13:45:56.269Z,3.08
2023-04-04T13:48:26.536Z,2.85
2023-04-04T13:50:55.803Z,3.17
2023-04-04T13:53:25.372Z,2.60
2023-04-04T13:56:17.148Z,3.28
2023-04-04T13:58:46.135Z,3.33
2023-04-04T14:01:13.780Z,3.03
2023-04-04T14:03:41.705Z,3.42
2023-04-04T14:06:11.312Z,3.20
2023-04-04T14:08:40.125Z,2.80
2023-04-04T14:11:09.483Z,2.90
2023-04-04T14:13:37.794Z,3.40
2023-04-04T14:16:06.192Z,3.00
2023-04-04T14:18:34.703Z,2.65
2023-04-04T14:21:03.188Z,3.63
2023-04-04T14:23:31.865Z,3.05
2023-04-04T14:26:00.404Z,3.13
2023-04-04T14:28:28.842Z,3.13
2023-04-04T14:30:56.499Z,3.17
2023-04-04T14:33:27.918Z,2.92
2023-04-04T14:35:56.279Z,3.05
2023-04-04T14:38:26.875Z,3.30
2023-04-04T14:40:55.702Z,3.75
2023-04-04T14:43:25.085Z,2.97
2023-04-04T14:45:54.814Z,3.30
2023-04-04T14:48:25.089Z,3.40
2023-04-04T14:50:57.069Z,2.85
2023-04-04T14:53:26.084Z,3.50
2023-04-04T14:55:56.681Z,2.85
2023-04-04T14:58:24.853Z,3.35
2023-04-04T15:00:54.081Z,3.00
2023-04-04T15:03:21.907Z,2.80
2023-04-04T15:05:54.858Z,3.15
2023-04-04T15:08:23.773Z,3.65
2023-04-04T15:10:51.893Z,3.33
2023-04-04T15:13:19.708Z,3.28
2023-04-04T15:15:49.566Z,3.40
2023-04-04T15:18:17.056Z,3.33
2023-04-04T15:20:45.179Z,3.38
2023-04-04T15:23:12.828Z,3.60
2023-04-04T15:25:41.810Z,2.95
2023-04-04T15:28:10.010Z,3.28
2023-04-04T15:30:37.618Z,3.42
2023-04-04T15:33:06.785Z,3.20
2023-04-04T15:35:34.758Z,3.38
2023-04-04T15:38:02.749Z,3.22
2023-04-04T15:40:30.489Z,3.78
2023-04-04T15:42:58.418Z,3.42
2023-04-04T15:45:27.326Z,3.33
2023-04-04T15:47:56.780Z,3.72
2023-04-04T15:50:25.851Z,3.20
2023-04-04T15:52:57.988Z,3.20
2023-04-04T15:55:25.536Z,3.25
2023-04-04T15:57:54.129Z,2.80
2023-04-04T16:00:23.481Z,3.45
2023-04-04T16:02:51.550Z,2.72
2023-04-04T16:05:19.315Z,3.65
2023-04-04T16:07:47.173Z,3.72
2023-04-04T16:10:14.795Z,3.40
2023-04-04T16:12:42.422Z,3.13
2023-04-04T16:15:11.957Z,3.40
2023-04-04T16:17:39.608Z,3.50
2023-04-04T16:20:07.773Z,3.35
2023-04-04T16:22:36.177Z,3.10
2023-04-04T16:25:04.282Z,3.30
2023-04-04T16:27:32.204Z,3.42
2023-04-04T16:30:00.050Z,3.05
2023-04-04T16:32:27.760Z,3.33
2023-04-04T16:34:58.995Z,3.40
2023-04-04T16:37:26.776Z,3.35
2023-04-04T16:39:56.601Z,3.17
2023-04-04T16:42:25.551Z,3.25
2023-04-04T16:44:55.818Z,3.42
2023-04-04T16:47:26.738Z,2.92
2023-04-04T16:49:56.394Z,2.75
2023-04-04T16:52:25.692Z,2.92
2023-04-04T16:54:57.627Z,3.05
2023-04-04T16:57:26.190Z,3.42
2023-04-04T16:59:54.848Z,2.72
2023-04-04T17:02:23.906Z,3.17
2023-04-04T17:04:53.961Z,3.50
2023-04-04T17:07:26.420Z,3.05
2023-04-04T17:09:54.671Z,3.38
2023-04-04T17:12:24.601Z,3.00
2023-04-04T17:14:53.368Z,3.10
2023-04-04T17:17:21.468Z,3.25
2023-04-04T17:19:49.128Z,3.40
2023-04-04T17:22:17.086Z,3.00
2023-04-04T17:24:47.132Z,3.47
2023-04-04T17:27:14.778Z,3.38
2023-04-04T17:29:42.799Z,3.58
2023-04-04T17:32:10.633Z,3.22
2023-04-04T17:34:38.400Z,3.20
2023-04-04T17:37:14.873Z,3.50
2023-04-04T17:39:45.530Z,3.92
2023-04-04T17:42:14.640Z,3.00
2023-04-04T17:44:42.735Z,3.25
2023-04-04T17:47:12.373Z,3.35
2023-04-04T17:49:40.183Z,3.03
2023-04-04T17:52:08.610Z,3.30
2023-04-04T17:54:39.268Z,3.33
2023-04-04T17:57:08.154Z,3.53
2023-04-04T17:59:36.331Z,3.17
2023-04-04T18:02:03.789Z,3.28
2023-04-04T18:04:31.610Z,3.00
2023-04-04T18:06:59.371Z,2.92
2023-04-04T18:09:29.242Z,3.70
2023-04-04T18:11:57.018Z,3.22
2023-04-04T18:14:26.644Z,3.67
2023-04-04T18:16:54.734Z,3.03
2023-04-04T18:19:24.813Z,3.40
2023-04-04T18:21:54.861Z,3.22
2023-04-04T18:24:24.642Z,3.67
2023-04-04T18:26:54.976Z,3.78
2023-04-04T18:29:23.621Z,3.28
2023-04-04T18:31:53.870Z,3.45
2023-04-04T18:34:21.765Z,3.47
2023-04-04T18:36:50.523Z,3.65
2023-04-04T18:39:18.753Z,3.60
2023-04-04T18:41:46.922Z,3.42
2023-04-04T18:44:14.535Z,3.65
2023-04-04T18:46:42.468Z,3.40
2023-04-04T18:49:10.849Z,4.35
2023-04-04T18:51:38.407Z,3.50
2023-04-04T18:54:07.657Z,3.58
2023-04-04T18:56:37.173Z,4.22
2023-04-04T18:59:06.559Z,3.42
2023-04-04T19:01:35.953Z,3.58
2023-04-04T19:04:04.586Z,3.90
2023-04-04T19:06:33.096Z,3.33
2023-04-04T19:09:04.153Z,3.58
2023-04-04T19:11:32.169Z,3.70
2023-04-04T19:14:00.164Z,3.67
2023-04-04T19:16:29.049Z,3.20
2023-04-04T19:18:56.803Z,3.78
2023-04-04T19:21:24.977Z,3.63
2023-04-04T19:23:55.050Z,3.13
2023-04-04T19:26:24.179Z,3.72
2023-04-04T19:28:53.990Z,4.05
2023-04-04T19:31:26.708Z,3.83
2023-04-04T19:33:57.654Z,3.60
2023-04-04T19:36:26.449Z,3.70
2023-04-04T19:38:56.084Z,3.67
2023-04-04T19:41:37.161Z,3.67
2023-04-04T19:44:10.325Z,3.63
2023-04-04T19:46:38.277Z,3.33
2023-04-04T19:49:12.989Z,3.67
2023-04-04T19:51:40.884Z,4.05
2023-04-04T19:54:11.721Z,3.80
2023-04-04T19:56:39.942Z,4.20
2023-04-04T19:59:10.723Z,4.47
2023-04-04T20:01:42.646Z,4.28
2023-04-04T20:04:15.200Z,4.00
2023-04-04T20:06:43.516Z,4.15
2023-04-04T20:09:38.313Z,4.05
2023-04-04T20:12:11.096Z,4.57
2023-04-04T20:14:41.631Z,3.97
2023-04-04T20:17:12.098Z,5.18
2023-04-04T20:19:40.243Z,4.68
2023-04-04T20:22:08.437Z,5.53
2023-04-04T20:24:36.540Z,4.47
2023-04-04T20:27:06.103Z,4.65
2023-04-04T20:29:34.850Z,4.60
2023-04-04T20:32:04.127Z,4.97
2023-04-04T20:34:49.797Z,5.05
2023-04-04T20:37:22.171Z,5.30
2023-04-04T20:39:56.007Z,4.78
2023-04-04T20:42:29.931Z,4.80
2023-04-04T20:45:08.371Z,4.88
2023-04-04T20:47:51.899Z,4.60
2023-04-04T20:50:42.559Z,5.25
2023-04-04T20:53:12.649Z,4.68
2023-04-04T20:55:41.153Z,4.57
2023-04-04T20:58:25.753Z,5.38
2023-04-04T21:00:54.541Z,5.88
2023-04-04T21:03:25.225Z,5.15
2023-04-04T21:05:59.384Z,4.78
2023-04-04T21:08:31.223Z,5.13
2023-04-04T21:11:02.536Z,4.72
2023-04-04T21:13:39.435Z,4.88
2023-04-04T21:16:17.108Z,5.57
2023-04-04T21:18:45.231Z,4.55
2023-04-04T21:21:13.213Z,5.03
2023-04-04T21:23:40.702Z,5.43
2023-04-04T21:26:10.970Z,5.45
2023-04-04T21:28:43.056Z,5.18
2023-04-04T21:31:15.320Z,5.10
2023-04-04T21:33:46.679Z,5.40
2023-04-04T21:36:32.337Z,5.70
2023-04-04T21:39:00.878Z,5.53
2023-04-04T21:41:28.892Z,5.45
2023-04-04T21:43:57.451Z,4.88
2023-04-04T21:46:26.945Z,5.47
2023-04-04T21:48:55.925Z,5.38
2023-04-04T21:51:24.774Z,5.13
2023-04-04T21:53:52.386Z,4.97
2023-04-04T21:56:21.511Z,5.93
2023-04-04T21:58:49.699Z,5.20
2023-04-04T22:01:17.492Z,5.18
2023-04-04T22:03:49.488Z,5.47
2023-04-04T22:06:17.189Z,5.53
2023-04-04T22:08:48.223Z,5.00
2023-04-04T22:11:19.343Z,5.47
2023-04-04T22:13:50.912Z,4.70
2023-04-04T22:16:20.584Z,5.63
2023-04-04T22:18:52.150Z,4.88
2023-04-04T22:21:26.296Z,4.95
2023-04-04T22:24:01.105Z,5.05
2023-04-04T22:26:33.446Z,5.10
2023-04-04T22:29:02.930Z,5.28
2023-04-04T22:31:31.323Z,5.55
2023-04-04T22:33:59.081Z,5.20
2023-04-04T22:36:26.651Z,5.43
2023-04-04T22:38:58.120Z,5.25
2023-04-04T22:41:30.630Z,5.88
2023-04-04T22:43:59.872Z,5.82
2023-04-04T22:46:30.073Z,5.55
2023-04-04T22:49:08.972Z,5.18
2023-04-04T22:51:46.299Z,5.10
2023-04-04T22:54:14.838Z,5.28
2023-04-04T22:56:42.795Z,6.15
2023-04-04T22:59:10.529Z,5.47
2023-04-04T23:01:38.924Z,5.63
2023-04-04T23:04:06.701Z,5.20
2023-04-04T23:06:36.122Z,5.88
2023-04-04T23:09:03.780Z,5.28
2023-04-04T23:11:32.004Z,5.65
2023-04-04T23:14:00.657Z,5.13
2023-04-04T23:16:29.169Z,4.40
2023-04-04T23:18:58.981Z,4.80
2023-04-04T23:21:29.037Z,5.10
2023-04-04T23:23:58.828Z,4.90
2023-04-04T23:26:27.356Z,5.73
2023-04-04T23:28:57.183Z,5.45
2023-04-04T23:31:26.334Z,5.50
2023-04-04T23:33:54.699Z,5.70
2023-04-04T23:36:23.406Z,5.97
2023-04-04T23:38:51.246Z,6.68
2023-04-04T23:41:20.315Z,5.88
2023-04-04T23:43:47.796Z,6.07
2023-04-04T23:46:16.166Z,5.55
2023-04-04T23:48:43.860Z,6.18
2023-04-04T23:51:11.646Z,6.47
2023-04-04T23:53:39.694Z,6.13
2023-04-04T23:56:07.577Z,6.55
2023-04-04T23:58:35.350Z,5.90
